首页
METAR-TAF:

METAR-TAF

机场 :

Ocala International Airport (Jim Taylor Field)

Ocala, 佛罗里达州, 美国

纬度: 29-10N, 经度: 082-13W, 海拔: 27米

当前天气观测

该预报发布于25分钟前的15:51 UTC
风速8节,风向东转东北
温度 28°C
湿度 51%
气压 1019 hPa
能見度: 16.1公里
多云层高于4500英尺

METAR: KOCF 231551Z 06008KT 10SM BKN045 28/17 A3009 RMK AO2 SLP191 T02780172

时间: 12:16 (16:16 UTC)


TAF: 丢失

超过4000个机场的气象观测和天气预报(METAR&TAF报告)。

可查询的气象台以黄色和红色小点在地图上表示。

将鼠标移到小点上方,可查看气象台名称。

然后点击查看天气观测和预报。

如需切换地图:点击带黑十字的绿色按钮放大地图;点击带横线的绿色按钮缩小地图;或者点击绿色箭头查看邻近地区的地图。


METAR-TAF: